ADDS METAR Data INFO
IDs: Format: Raw Decoded Include TAF

Data at: 0116 UTC 21 Oct 2017

KOCF 210051Z AUTO 00000KT 10SM CLR 23/18 A3013 RMK AO2 SLP205 T02280178
KOCF 202351Z 06004KT 10SM CLR 24/18 A3012 RMK AO2 SLP201 T02440178 10294 20244 402940200 53008
KOCF 202251Z 06004KT 10SM CLR 26/17 A3011 RMK AO2 SLP197 T02560167
KOCF 202151Z 06006KT 10SM CLR 27/17 A3010 RMK AO2 SLP194 T02720172
KOCF 202051Z VRB05G15KT 10SM CLR 28/18 A3010 RMK AO2 SLP192 T02830183 56009
KOCF 201951Z 08007G17KT 040V130 10SM SCT044 28/19 A3010 RMK AO2 SLP193 T02830194
KOCF 201851Z 06010G15KT 10SM FEW046 29/19 A3010 RMK AO2 SLP193 T02940189
KOCF 201751Z COR 07006KT 10SM SCT050 28/18 A3012 RMK AO2 SLP202 T02830183 10289 20200 58020
KOCF 201651Z 04010G16KT 10SM SCT055 28/17 A3016 RMK AO2 SLP213 T02830167
KOCF 201551Z 06010KT 10SM SCT045 27/18 A3017 RMK AO2 SLP219 T02720178
KOCF 201451Z 05008KT 10SM FEW040 26/20 A3018 RMK AO2 SLP222 T02610200 51009
KOCF 201351Z COR 01005KT 10SM SCT037 24/20 A3018 RMK AO2 SLP222 T02390200
KOCF 201251Z 01005KT 10SM FEW035 21/20 A3017 RMK AO2 SLP217 T02110200
KOCF 201151Z 02003KT 10SM CLR 20/19 A3016 RMK AO2 SLP214 60001 70043 T02000194 10211 20200 53008
KOCF 201051Z 01003KT 10SM CLR 20/19 A3015 RMK AO2 SLP210 T02000194
KOCF 200951Z AUTO 02003KT 10SM SCT032 21/20 A3013 RMK AO2 SLP206 T02060200
KOCF 200851Z AUTO 01003KT 10SM FEW055 21/21 A3013 RMK AO2 RAB02E19 SLP205 P0000 60001 T02110206 57008
KOCF 200821Z AUTO 01005KT 10SM FEW020 SCT027 BKN046 21/21 A3013 RMK AO2 RAB02E19 P0000
KOCF 200807Z AUTO 00000KT 6SM -RA BR FEW016 BKN027 OVC045 21/21 A3013 RMK AO2 RAB02 P0000
KOCF 200751Z AUTO 02004KT 10SM SCT021 SCT033 OVC043 21/21 A3014 RMK AO2 SLP206 T02110206
KOCF 200651Z AUTO 00000KT 10SM FEW024 SCT030 21/21 A3015 RMK AO2 RAE05 SLP211 P0001 T02110206
KOCF 200608Z AUTO 00000KT 8SM FEW019 SCT027 SCT039 21/21 A3015 RMK AO2 RAE05 P0000
KOCF 200551Z AUTO 06003KT 3SM -RA BR SCT019 OVC029 21/21 A3015 RMK AO2 RAB44 SLP213 P0000 60000 T02110206 10222 20211 53001
KOCF 200539Z AUTO VRB03KT 10SM BKN029 21/21 A3015 RMK AO2
KOCF 200451Z AUTO 00000KT 10SM CLR 22/21 A3015 RMK AO2 SLP210 T02170206
KOCF 200351Z AUTO 03005KT 10SM FEW019 SCT028 BKN044 22/21 A3015 RMK AO2 SLP212 T02170206
KOCF 200251Z AUTO VRB04KT 10SM CLR 22/21 A3015 RMK AO2 SLP212 T02170206 52008
KOCF 200151Z AUTO VRB05KT 10SM FEW012 22/21 A3014 RMK AO2 SLP208 T02220211 TSNO
KOCF 200103Z AUTO VRB04KT 10SM FEW002 22/21 A3014 RMK AO2
KOCF 200051Z AUTO 05004KT 10SM CLR 22/21 A3014 RMK AO2 SLP207 T02220206
KOCF 192351Z AUTO 04004KT 10SM CLR 22/21 A3013 RMK AO2 SLP203 60042 T02220206 10278 20222 402780194 53006
KOCF 192251Z VRB05KT 10SM CLR 23/21 A3011 RMK AO2 SLP199 T02280206
KOCF 192151Z 03003KT 10SM FEW095 24/22 A3011 RMK AO2 RAE00 SLP197 P0000 T02390222
KOCF 192051Z 01005KT 10SM -RA SCT025 23/22 A3011 RMK AO2 RAB11 SLP198 P0035 60042 T02280217 55004
KOCF 192026Z 36008KT 3SM -RA BR FEW010 22/21 A3012 RMK AO2 RAB11 P0034
KOCF 192014Z 07007G17KT 040V110 1 3/4SM +RA BR FEW011 SCT019 SCT025 24/22 A3012 RMK AO2 RAB11 PRESRR P0020
KOCF 191958Z 01008KT 10SM SCT025 27/23 A3010 RMK AO2
KOCF 191951Z 01006KT 10SM BKN020 BKN049 26/22 A3010 RMK AO2 RAE14 SLP194 P0007 T02610222
KOCF 191915Z 05003KT 10SM BKN020 BKN049 23/22 A3011 RMK AO2 RAE14 P0007
KOCF 191908Z 00000KT 7SM -RA FEW016 SCT025 23/22 A3011 RMK AO2 P0007
KOCF 191858Z VRB05KT 2 1/2SM +RA BR FEW014 BKN025 OVC049 23/21 A3012 RMK AO2 VIS 1 1/2V5 P0006
KOCF 191851Z 07009KT 10SM -RA SCT025 OVC045 26/21 A3012 RMK AO2 RAB50 SLP199 P0000 T02610211
KOCF 191751Z 02011KT 10SM SCT027 SCT035 SCT060 27/22 A3012 RMK AO2 SLP202 T02720217 10278 20200 58014
KOCF 191651Z 02008KT 10SM OVC055 27/21 A3015 RMK AO2 SLP210 T02670211
KOCF 191636Z 04008KT 10SM FEW025 SCT037 OVC049 27/21 A3015 RMK AO2
KOCF 191602Z 01007KT 10SM BKN023 27/21 A3016 RMK AO2
KOCF 191551Z 05008KT 10SM SCT023 26/21 A3016 RMK AO2 SLP215 T02610211
KOCF 191522Z VRB05KT 10SM SCT014 26/21 A3017 RMK AO2
KOCF 191453Z 02007KT 10SM BKN011 24/21 A3016 RMK AO2
KOCF 191451Z 03006KT 10SM BKN009 24/21 A3016 RMK AO2 SLP216 T02390211 51010
KOCF 191431Z 04007KT 360V080 10SM OVC009 23/21 A3016 RMK AO2
KOCF 191351Z 01006KT 10SM OVC005 22/20 A3016 RMK AO2 SLP216 T02170200
KOCF 191326Z 01007KT 10SM OVC005 21/20 A3016 RMK AO2